Ittre, Belgium
Current Conditions -  °F | °C
As of 9:50 AM on Wednesday 26 Nov 2014 (Local Time) from EBCI Reporting Station
Light Rain Light Rain  
Wind Chill: 42°   Ceiling: Unl
Heat Index: 45°   Visibility: 2.1mi
Dew Point: 43°   Wind: 5mph
Humidity: 93%   Direction: 110°ESE
Pressure: 29.91"   Gusts: NA
Location:  50.64°N, 4.26°E
Report Text: EBCI 260850Z 11004KT 090V150 3500 -RA BR FEW012 SCT030 07/06 Q1013 TEMPO 2500 BR BKN012
Loading
Personal Weather Stations






























Interactive Weather Map New forecast layout! Learn more

10-Day Weather Forecast

Advertisements
Track Severe Weather on mobile